createdAt,value
2022-11-09T00:08:09.927Z,193.47
2022-11-09T00:18:13.651Z,210.93
2022-11-09T00:28:18.808Z,218.40
2022-11-09T00:38:24.421Z,192.53
2022-11-09T00:48:29.879Z,218.03
2022-11-09T00:58:36.975Z,233.77
2022-11-09T01:08:42.698Z,301.83
2022-11-09T01:18:47.019Z,295.33
2022-11-09T01:28:54.431Z,360.27
2022-11-09T01:38:58.500Z,281.13
2022-11-09T01:49:09.994Z,263.07
2022-11-09T01:59:19.078Z,241.83
2022-11-09T02:09:30.844Z,242.90
2022-11-09T02:19:36.409Z,244.20
2022-11-09T02:29:46.056Z,354.20
2022-11-09T02:39:50.224Z,300.87
2022-11-09T02:49:57.988Z,280.27
2022-11-09T03:00:03.563Z,295.37
2022-11-09T03:10:10.555Z,303.20
2022-11-09T03:20:15.649Z,276.50
2022-11-09T03:30:21.509Z,237.23
2022-11-09T03:40:25.593Z,222.57
2022-11-09T03:50:33.263Z,214.40
2022-11-09T04:00:37.446Z,218.77
2022-11-09T04:10:42.601Z,212.00
2022-11-09T04:20:46.365Z,218.83
2022-11-09T04:30:51.622Z,202.70
2022-11-09T04:40:55.361Z,212.90
2022-11-09T04:51:05.047Z,190.13
2022-11-09T05:01:12.189Z,211.47
2022-11-09T05:11:17.600Z,211.10
2022-11-09T05:21:22.086Z,216.37
2022-11-09T05:31:27.845Z,208.13
2022-11-09T05:41:31.725Z,211.03
2022-11-09T05:51:36.926Z,205.80
2022-11-09T06:01:40.710Z,203.47
2022-11-09T06:11:46.847Z,209.83
2022-11-09T06:21:50.539Z,207.37
2022-11-09T06:31:55.950Z,211.13
2022-11-09T06:41:59.738Z,218.13
2022-11-09T06:52:05.390Z,216.17
2022-11-09T07:02:10.364Z,205.23
2022-11-09T07:12:15.422Z,204.03
2022-11-09T07:22:20.031Z,200.97
2022-11-09T07:32:46.968Z,213.40
2022-11-09T07:42:49.055Z,210.60
2022-11-09T07:52:54.191Z,218.50
2022-11-09T08:02:58.026Z,218.83
2022-11-09T08:13:06.349Z,234.47
2022-11-09T08:23:13.393Z,221.27
2022-11-09T08:33:18.614Z,218.37
2022-11-09T08:43:22.343Z,218.37
2022-11-09T08:53:29.871Z,211.53
2022-11-09T09:03:33.670Z,211.97
2022-11-09T09:13:43.060Z,211.60
2022-11-09T09:23:49.729Z,214.03
2022-11-09T09:33:54.775Z,221.10
2022-11-09T09:44:02.681Z,216.50
2022-11-09T09:54:14.405Z,216.67
2022-11-09T10:04:21.762Z,213.27
2022-11-09T10:14:45.869Z,214.93
2022-11-09T10:35:27.983Z,209.57
2022-11-09T10:45:34.574Z,205.63
2022-11-09T10:56:00.505Z,206.23
2022-11-09T11:06:31.583Z,202.57
2022-11-09T11:16:56.282Z,197.43
2022-11-09T11:27:28.509Z,191.80
2022-11-09T11:38:22.001Z,201.60
2022-11-09T11:49:15.276Z,199.45
2022-11-09T12:00:06.130Z,192.17
2022-11-09T12:10:44.462Z,188.70
2022-11-09T12:21:19.005Z,188.05
2022-11-09T12:31:54.721Z,190.48
2022-11-09T12:42:24.294Z,189.52
2022-11-09T12:52:49.389Z,182.73
2022-11-09T13:03:22.860Z,181.38
2022-11-09T13:13:45.811Z,182.07
2022-11-09T13:25:00.045Z,182.50
2022-11-09T13:36:16.038Z,183.20
2022-11-09T13:46:40.962Z,191.73
2022-11-09T13:57:07.603Z,192.50
2022-11-09T14:07:35.500Z,187.83
2022-11-09T14:18:13.807Z,195.63
2022-11-09T14:28:37.886Z,203.87
2022-11-09T14:39:04.638Z,196.03
2022-11-09T14:49:29.143Z,195.67
2022-11-09T14:59:51.612Z,215.70
2022-11-09T15:10:22.906Z,201.10
2022-11-09T15:20:44.965Z,193.47
2022-11-09T15:31:16.326Z,192.27
2022-11-09T15:41:39.066Z,194.20
2022-11-09T15:52:02.662Z,189.60
2022-11-09T16:02:25.087Z,200.63
2022-11-09T16:12:48.858Z,190.37
2022-11-09T16:23:11.115Z,273.10
2022-11-09T16:33:35.264Z,196.13
2022-11-09T16:43:58.750Z,201.57
2022-11-09T16:54:22.246Z,199.23
2022-11-09T17:04:44.589Z,198.30
2022-11-09T17:15:09.669Z,195.43
2022-11-09T17:25:31.949Z,197.13
2022-11-09T17:36:02.104Z,193.40
2022-11-09T17:46:24.737Z,199.90
2022-11-09T17:56:48.358Z,206.17
2022-11-09T18:07:10.365Z,206.27
2022-11-09T18:17:34.010Z,205.73
2022-11-09T18:27:55.858Z,210.17
2022-11-09T18:38:20.312Z,206.47
2022-11-09T18:48:43.679Z,232.43
2022-11-09T18:59:12.628Z,226.50
2022-11-09T19:09:37.194Z,220.97
2022-11-09T19:20:00.797Z,223.63
2022-11-09T19:30:25.995Z,252.40
2022-11-09T19:40:55.775Z,246.93
2022-11-09T19:51:20.252Z,221.13
2022-11-09T20:01:43.866Z,226.30
2022-11-09T20:12:23.533Z,238.90
2022-11-09T20:22:47.126Z,229.30
2022-11-09T20:33:10.749Z,244.93
2022-11-09T20:43:34.886Z,233.97
2022-11-09T20:53:56.883Z,232.47
2022-11-09T21:04:20.356Z,231.07
2022-11-09T21:14:42.489Z,225.60
2022-11-09T21:25:23.867Z,236.40
2022-11-09T21:35:45.954Z,241.80
2022-11-09T21:46:09.433Z,219.13
2022-11-09T21:56:31.238Z,250.90
2022-11-09T22:06:54.842Z,233.87
2022-11-09T22:17:16.890Z,239.70
2022-11-09T22:27:40.058Z,239.43
2022-11-09T22:38:03.208Z,258.37
2022-11-09T22:48:26.313Z,243.70
2022-11-09T22:58:52.766Z,258.80
2022-11-09T23:09:15.800Z,258.03
2022-11-09T23:19:37.923Z,286.53
2022-11-09T23:30:01.102Z,353.37
2022-11-09T23:40:22.929Z,369.40
2022-11-09T23:50:48.136Z,356.73
